Terminal Aerodrome Forecast
Issued by NWS

Home | Current Version | Previous Version | Text Only | Print | Product List | Glossary On
Versions: 1 2 3 4 5 6 7 8 9 10 11 12 13 14 15 16 17 18 19 20 21 22 23 24 25 26 27 28 29
000
FTUS41 KBUF 251100
TAFJHW
TAF
KJHW 251120Z 2512/2612 22010KT P6SM SCT025 BKN035
     FM251600 24015G22KT P6SM SCT025 BKN040
     FM252000 26016G27KT P6SM VCSH SCT025 BKN035
     FM252300 26013G21KT P6SM SCT040 BKN130
     FM260300 28014KT P6SM SCT035
      AMD LTD TO CLD VIS AND WIND=

USA.gov is the U.S. government's official web portal to all federal, state and local government web resources and services.